Map

Track Data

SID SEASON NUMBER BASIN SUBBASIN NAME ISO_TIME NATURE LAT LON WMO_WIND WMO_PRES WMO_AGENCY TRACK_TYPE DIST2LAND LANDFALL IFLAG USA_AGENCY USA_ATCF_ID USA_LAT USA_LON USA_RECORD USA_STATUS USA_WIND USA_PRES USA_SSHS USA_R34_NE USA_R34_SE USA_R34_SW USA_R34_NW USA_R50_NE USA_R50_SE USA_R50_SW USA_R50_NW USA_R64_NE USA_R64_SE USA_R64_SW USA_R64_NW USA_POCI USA_ROCI USA_RMW USA_EYE TOKYO_LAT TOKYO_LON TOKYO_GRADE TOKYO_WIND TOKYO_PRES TOKYO_R50_DIR TOKYO_R50_LONG TOKYO_R50_SHORT TOKYO_R30_DIR TOKYO_R30_LONG TOKYO_R30_SHORT TOKYO_LAND CMA_LAT CMA_LON CMA_CAT CMA_WIND CMA_PRES HKO_LAT HKO_LON HKO_CAT HKO_WIND HKO_PRES NEWDELHI_LAT NEWDELHI_LON NEWDELHI_GRADE NEWDELHI_WIND NEWDELHI_PRES NEWDELHI_CI NEWDELHI_DP NEWDELHI_POCI REUNION_LAT REUNION_LON REUNION_TYPE REUNION_WIND REUNION_PRES REUNION_TNUM REUNION_CI REUNION_RMW REUNION_R34_NE REUNION_R34_SE REUNION_R34_SW REUNION_R34_NW REUNION_R50_NE REUNION_R50_SE REUNION_R50_SW REUNION_R50_NW REUNION_R64_NE REUNION_R64_SE REUNION_R64_SW REUNION_R64_NW BOM_LAT BOM_LON BOM_TYPE BOM_WIND BOM_PRES BOM_TNUM BOM_CI BOM_RMW BOM_R34_NE BOM_R34_SE BOM_R34_SW BOM_R34_NW BOM_R50_NE BOM_R50_SE BOM_R50_SW BOM_R50_NW BOM_R64_NE BOM_R64_SE BOM_R64_SW BOM_R64_NW BOM_ROCI BOM_POCI BOM_EYE BOM_POS_METHOD BOM_PRES_METHOD NADI_LAT NADI_LON NADI_CAT NADI_WIND NADI_PRES WELLINGTON_LAT WELLINGTON_LON WELLINGTON_WIND WELLINGTON_PRES DS824_LAT DS824_LON DS824_STAGE DS824_WIND DS824_PRES TD9636_LAT TD9636_LON TD9636_STAGE TD9636_WIND TD9636_PRES TD9635_LAT TD9635_LON TD9635_WIND TD9635_PRES TD9635_ROCI NEUMANN_LAT NEUMANN_LON NEUMANN_CLASS NEUMANN_WIND NEUMANN_PRES MLC_LAT MLC_LON MLC_CLASS MLC_WIND MLC_PRES USA_GUST BOM_GUST BOM_GUST_PER REUNION_GUST REUNION_GUST_PER USA_SEAHGT USA_SEARAD_NE USA_SEARAD_SE USA_SEARAD_SW USA_SEARAD_NW STORM_SPEED STORM_DIR
1923011S17122 1923 2 SI WA NOT_NAMED 1923-01-10 12:00:00 NR -16.7000 122.000 main 54 54 __________O___ -1 -16.7000 122.000 7 2 245
1923011S17122 1923 2 SI WA NOT_NAMED 1923-01-10 15:00:00 NR -16.7469 121.888 main 61 54 __________P___ -1 -16.7469 121.888 7 2 247
1923011S17122 1923 2 SI WA NOT_NAMED 1923-01-10 18:00:00 NR -16.7950 121.770 main 62 62 __________P___ -1 -16.7950 121.770 7 3 247
1923011S17122 1923 2 SI WA NOT_NAMED 1923-01-10 21:00:00 NR -16.8456 121.643 main 81 77 __________P___ -1 -16.8456 121.643 7 3 248
1923011S17122 1923 2 SI WA NOT_NAMED 1923-01-11 00:00:00 NR -16.9000 121.500 main 86 86 __________O___ -1 -16.9000 121.500 7 3 249
1923011S17122 1923 2 SI WA NOT_NAMED 1923-01-11 03:00:00 NR -16.9597 121.339 main 101 101 __________P___ -1 -16.9597 121.339 7 3 248
1923011S17122 1923 2 SI WA NOT_NAMED 1923-01-11 06:00:00 NR -17.0275 121.165 main 111 111 __________P___ -1 -17.0275 121.165 7 4 247
1923011S17122 1923 2 SI WA NOT_NAMED 1923-01-11 09:00:00 NR -17.1066 120.983 main 129 129 __________P___ -1 -17.1066 120.983 7 4 244
1923011S17122 1923 2 SI WA NOT_NAMED 1923-01-11 12:00:00 NR -17.2000 120.800 main 145 145 __________O___ -1 -17.2000 120.800 7 4 238
1923011S17122 1923 2 SI WA NOT_NAMED 1923-01-11 15:00:00 NR -17.3146 120.633 main 162 160 __________P___ -1 -17.3146 120.633 7 4 233
1923011S17122 1923 2 SI WA NOT_NAMED 1923-01-11 18:00:00 NR -17.4424 120.465 main 171 171 __________P___ -1 -17.4424 120.465 7 4 232
1923011S17122 1923 2 SI WA NOT_NAMED 1923-01-11 21:00:00 NR -17.5739 120.289 main 185 185 __________P___ -1 -17.5739 120.289 7 4 233
1923011S17122 1923 2 SI WA NOT_NAMED 1923-01-12 00:00:00 NR -17.7000 120.100 main 196 196 __________O___ -1 -17.7000 120.100 7 4 240
1923011S17122 1923 2 SI WA NOT_NAMED 1923-01-12 03:00:00 NR -17.7950 119.893 main 210 210 __________P___ -1 -17.7950 119.893 7 4 246
1923011S17122 1923 2 SI WA NOT_NAMED 1923-01-12 06:00:00 NR -17.8849 119.672 main 225 224 __________P___ -1 -17.8849 119.672 7 5 246
1923011S17122 1923 2 SI WA NOT_NAMED 1923-01-12 09:00:00 NR -17.9824 119.440 main 227 218 __________P___ -1 -17.9824 119.440 7 5 244
1923011S17122 1923 2 SI WA NOT_NAMED 1923-01-12 12:00:00 NR -18.1000 119.200 main 221 201 __________O___ -1 -18.1000 119.200 7 6 239
1923011S17122 1923 2 SI WA NOT_NAMED 1923-01-12 15:00:00 NR -18.2698 118.941 main 202 192 __________P___ -1 -18.2698 118.941 7 6 234
1923011S17122 1923 2 SI WA NOT_NAMED 1923-01-12 18:00:00 NR -18.4576 118.678 main 183 179 __________P___ -1 -18.4576 118.678 7 6 233
1923011S17122 1923 2 SI WA NOT_NAMED 1923-01-12 21:00:00 NR -18.6417 118.426 main 183 167 __________P___ -1 -18.6417 118.426 7 6 233
1923011S17122 1923 2 SI WA NOT_NAMED 1923-01-13 00:00:00 NR -18.8000 118.200 main 173 167 __________O___ -1 -18.8000 118.200 7 5 235
1923011S17122 1923 2 SI WA NOT_NAMED 1923-01-13 03:00:00 NR -18.9076 118.025 main 168 157 __________P___ -1 -18.9076 118.025 7 4 238
1923011S17122 1923 2 SI WA NOT_NAMED 1923-01-13 06:00:00 NR -18.9872 117.877 main 157 157 __________P___ -1 -18.9872 117.877 7 3 242
1923011S17122 1923 2 SI WA NOT_NAMED 1923-01-13 09:00:00 NR -19.0483 117.741 main 162 151 __________P___ -1 -19.0483 117.741 7 3 247
1923011S17122 1923 2 SI WA NOT_NAMED 1923-01-13 12:00:00 NR -19.1000 117.600 main 154 152 __________O___ -1 -19.1000 117.600 7 3 250
1923011S17122 1923 2 SI WA NOT_NAMED 1923-01-13 15:00:00 NR -19.1531 117.428 main 152 152 __________P___ -1 -19.1531 117.428 7 3 253
1923011S17122 1923 2 SI WA NOT_NAMED 1923-01-13 18:00:00 NR -19.2000 117.250 main 162 159 __________P___ -1 -19.2000 117.250 7 3 254
1923011S17122 1923 2 SI WA NOT_NAMED 1923-01-13 21:00:00 NR -19.2469 117.072 main 159 145 __________P___ -1 -19.2469 117.072 7 3 253
1923011S17122 1923 2 SI WA NOT_NAMED 1923-01-14 00:00:00 NR -19.3000 116.900 main 145 134 __________O___ -1 -19.3000 116.900 7 3 248
1923011S17122 1923 2 SI WA NOT_NAMED 1923-01-14 03:00:00 NR -19.3718 116.739 main 134 134 __________P___ -1 -19.3718 116.739 7 3 243
1923011S17122 1923 2 SI WA NOT_NAMED 1923-01-14 06:00:00 NR -19.4499 116.585 main 134 123 __________P___ -1 -19.4499 116.585 7 3 241
1923011S17122 1923 2 SI WA NOT_NAMED 1923-01-14 09:00:00 NR -19.5281 116.439 main 126 116 __________P___ -1 -19.5281 116.439 7 3 241
1923011S17122 1923 2 SI WA NOT_NAMED 1923-01-14 12:00:00 NR -19.6000 116.300 main 119 119 __________O___ -1 -19.6000 116.300 7 3 243
1923011S17122 1923 2 SI WA NOT_NAMED 1923-01-14 15:00:00 NR -19.6489 116.184 main 123 113 __________P___ -1 -19.6489 116.184 7 2 246
1923011S17122 1923 2 SI WA NOT_NAMED 1923-01-14 18:00:00 NR -19.6923 116.072 main 118 118 __________P___ -1 -19.6923 116.072 7 2 248
1923011S17122 1923 2 SI WA NOT_NAMED 1923-01-14 21:00:00 NR -19.7395 115.949 main 130 122 __________P___ -1 -19.7395 115.949 7 3 247
1923011S17122 1923 2 SI WA NOT_NAMED 1923-01-15 00:00:00 NR -19.8000 115.800 main 129 128 __________O___ -1 -19.8000 115.800 7 5 250
1923011S17122 1923 2 SI WA NOT_NAMED 1923-01-15 01:00:00 NR -19.8613 115.590 bom main 128 128 ______O___P___ -1 -20.0000 115.000 -19.8267 115.737 7 9 250
1923011S17122 1923 2 SI WA NOT_NAMED 1923-01-15 03:00:00 NR -19.9475 115.370 main 139 130 ______P___P___ -1 -20.0711 114.912 -19.8857 115.600 7 6 245
1923011S17122 1923 2 SI WA NOT_NAMED 1923-01-15 06:00:00 NR -20.0675 115.118 main 139 139 ______P___P___ -1 -20.1773 114.778 -19.9851 115.373 7 5 242
1923011S17122 1923 2 SI WA NOT_NAMED 1923-01-15 09:00:00 NR -20.1872 114.889 main 144 144 ______P___P___ -1 -20.2824 114.644 -20.0920 115.134 7 4 240
1923011S17122 1923 2 SI WA NOT_NAMED 1923-01-15 12:00:00 NR -20.2929 114.705 main 152 147 ______P___O___ -1 -20.3858 114.509 -20.2000 114.900 7 4 239
1923011S17122 1923 2 SI WA NOT_NAMED 1923-01-15 15:00:00 NR -20.3812 114.541 main 151 143 ______P___P___ -1 -20.4869 114.373 -20.2754 114.709 7 4 240
1923011S17122 1923 2 SI WA NOT_NAMED 1923-01-15 18:00:00 NR -20.4699 114.378 main 143 140 ______P___P___ -1 -20.5852 114.234 -20.3546 114.522 7 4 239
1923011S17122 1923 2 SI WA NOT_NAMED 1923-01-15 21:00:00 NR -20.5683 114.208 main 140 133 ______P___P___ -1 -20.6800 114.093 -20.4566 114.324 7 4 236
1923011S17122 1923 2 SI WA NOT_NAMED 1923-01-16 00:00:00 TS -20.6981 114.011 main 134 134 ______P__OO___ -1 -20.7708 113.949 -20.8000 113.900 TC -20.6000 114.100 7 5 235
1923011S17122 1923 2 SI WA NOT_NAMED 1923-01-16 01:00:00 TS -20.7485 113.935 bom main 134 123 ______O__PP___ -1 -20.8000 113.900 -20.8332 113.861 TC -20.6547 114.007 7 5 234
1923011S17122 1923 2 SI WA NOT_NAMED 1923-01-16 03:00:00 TS -20.8408 113.799 main 124 108 ______P__PP___ -1 -20.8577 113.802 -20.9010 113.783 TC -20.7787 113.809 7 5 232
1923011S17122 1923 2 SI WA NOT_NAMED 1923-01-16 06:00:00 TS -20.9888 113.603 main 108 99 ______P__PP___ -1 -20.9519 113.652 -21.0116 113.663 TC -21.0029 113.493 7 5 229
1923011S17122 1923 2 SI WA NOT_NAMED 1923-01-16 09:00:00 TS -21.1627 113.406 main 99 98 ______P__PP___ -1 -21.0711 113.501 -21.1414 113.536 TC -21.2756 113.180 7 5 223
1923011S17122 1923 2 SI WA NOT_NAMED 1923-01-16 12:00:00 TS -21.3778 113.217 main 99 99 ______P__OO___ -1 -21.2333 113.350 -21.3000 113.400 TC 45 990 -21.6000 112.900 7 6 218
1923011S17122 1923 2 SI WA NOT_NAMED 1923-01-16 13:00:00 TS -21.4593 113.156 990 bom main 93 93 ______O__PP___ -1 -21.3000 113.300 990 4 -21.3609 113.352 TC -21.7169 112.818 7 6 213
1923011S17122 1923 2 SI WA NOT_NAMED 1923-01-16 15:00:00 TS -21.6351 113.038 main 108 98 ______P__PP___ -1 -21.4380 113.196 -21.4968 113.252 TC -21.9705 112.665 7 7 209
1923011S17122 1923 2 SI WA NOT_NAMED 1923-01-16 18:00:00 TS -21.9395 112.868 main 102 93 ______P__PP___ -1 -21.6886 113.039 -21.7402 113.098 TC -22.3899 112.468 7 7 204
1923011S17122 1923 2 SI WA NOT_NAMED 1923-01-16 21:00:00 TS -22.2911 112.715 main 98 93 ______P__PP___ -1 -21.9955 112.887 -22.0385 112.945 TC -22.8393 112.312 7 8 200
1923011S17122 1923 2 SI WA NOT_NAMED 1923-01-17 00:00:00 TS -22.6877 112.581 main 103 103 ______P__OO___ -1 -22.3632 112.744 -22.4000 112.800 TC -23.3000 112.200 7 8 196
1923011S17122 1923 2 SI WA NOT_NAMED 1923-01-17 01:00:00 TS -22.8278 112.542 bom main 114 114 ______O__PP___ -1 -22.5000 112.700 -22.5380 112.752 TC -23.4454 112.172 7 9 193
1923011S17122 1923 2 SI WA NOT_NAMED 1923-01-17 03:00:00 TS -23.1269 112.468 main 125 116 ______P__PP___ -1 -22.7995 112.610 -22.8425 112.659 TC -23.7386 112.135 7 10 191
1923011S17122 1923 2 SI WA NOT_NAMED 1923-01-17 06:00:00 TS -23.6196 112.374 main 116 114 ______P__PP___ -1 -23.3131 112.484 -23.3608 112.526 TC -24.1849 112.111 7 10 189
1923011S17122 1923 2 SI WA NOT_NAMED 1923-01-17 09:00:00 TS -24.1550 112.292 main 113 111 ______P__PP___ -1 -23.8887 112.368 -23.9377 112.401 TC -24.6387 112.107 7 11 187
1923011S17122 1923 2 SI WA NOT_NAMED 1923-01-17 12:00:00 TS -24.7218 112.218 main 125 125 ______P__PO___ -1 -24.5092 112.265 -24.5562 112.288 TC -25.1000 112.100 7 12 187
1923011S17122 1923 2 SI WA NOT_NAMED 1923-01-17 15:00:00 TS -25.3054 112.139 main 137 121 ______P__PP___ -1 -25.1576 112.176 -25.1988 112.189 TC -25.5597 112.053 7 12 186
1923011S17122 1923 2 SI WA NOT_NAMED 1923-01-17 18:00:00 TS -25.8975 112.070 main 121 119 ______P__PP___ -1 -25.8166 112.102 -25.8484 112.106 TC -26.0275 112.000 7 12 185
1923011S17122 1923 2 SI WA NOT_NAMED 1923-01-17 21:00:00 TS -26.4879 112.012 main 131 131 ______P__PP___ -1 -26.4693 112.046 -26.4879 112.042 TC -26.5066 111.947 7 12 184
1923011S17122 1923 2 SI WA NOT_NAMED 1923-01-18 00:00:00 TS -27.0661 111.969 main 156 156 ______P__OO___ -1 -27.0984 112.008 -27.1000 112.000 TC -27.0000 111.900 7 12 184
1923011S17122 1923 2 SI WA NOT_NAMED 1923-01-18 01:00:00 TS -27.2541 111.957 bom main 170 170 ______O__PP___ -1 -27.3000 112.000 -27.2952 111.991 TC -27.1670 111.879 7 11 183
1923011S17122 1923 2 SI WA NOT_NAMED 1923-01-18 03:00:00 TS -27.6221 111.936 main 195 195 ______P__PP___ -1 -27.6883 111.991 -27.6715 111.982 TC -27.5065 111.836 7 11 183
1923011S17122 1923 2 SI WA NOT_NAMED 1923-01-18 06:00:00 TS -28.1559 111.921 main 220 220 ______P__PP___ -1 -28.2360 111.993 -28.2043 111.985 TC -28.0274 111.784 7 11 181
1923011S17122 1923 2 SI WA NOT_NAMED 1923-01-18 09:00:00 TS -28.6703 111.928 main 234 234 ______P__PP___ -1 -28.7475 112.012 -28.7039 112.007 TC -28.5596 111.765 7 10 177
1923011S17122 1923 2 SI WA NOT_NAMED 1923-01-18 12:00:00 TS -29.1682 111.964 main 247 247 ______P__PO___ -1 -29.2284 112.046 -29.1761 112.046 TC -29.1000 111.800 7 10 175
1923011S17122 1923 2 SI WA NOT_NAMED 1923-01-18 15:00:00 TS -29.6715 112.032 main 271 266 ______P__PP___ -1 -29.6846 112.092 -29.6263 112.097 TC -29.7037 111.908 7 10 172
1923011S17122 1923 2 SI WA NOT_NAMED 1923-01-18 18:00:00 TS -30.1715 112.124 main 279 270 ______P__PP___ -1 -30.1218 112.148 -30.0600 112.159 TC -30.3050 112.073 7 10 170
1923011S17122 1923 2 SI WA NOT_NAMED 1923-01-18 21:00:00 TS -30.6686 112.244 main 278 263 ______P__PP___ -1 -30.5457 112.210 -30.4827 112.228 TC -30.8537 112.277 7 10 166
1923011S17122 1923 2 SI WA NOT_NAMED 1923-01-19 00:00:00 TS -31.1463 112.408 main 266 263 ______P__OO___ -1 -30.9619 112.277 -30.9000 112.300 TC -31.3000 112.500 7 11 162
1923011S17122 1923 2 SI WA NOT_NAMED 1923-01-19 01:00:00 NR -31.3507 112.511 bom main 267 257 ______O___P___ -1 -31.1000 112.300 TC -31.4134 112.564 7 10 151
1923011S17122 1923 2 SI WA NOT_NAMED 1923-01-19 03:00:00 NR -31.5988 112.695 main 257 248 __________P___ -1 TC -31.5988 112.695 7 7 143
1923011S17122 1923 2 SI WA NOT_NAMED 1923-01-19 06:00:00 NR -31.7920 112.906 main 248 235 __________P___ -1 TC -31.7920 112.906 7 5 130
1923011S17122 1923 2 SI WA NOT_NAMED 1923-01-19 09:00:00 NR -31.9143 113.139 main 235 213 __________P___ -1 TC -31.9143 113.139 7 5 116
1923011S17122 1923 2 SI WA NOT_NAMED 1923-01-19 12:00:00 NR -32.0000 113.400 main 213 188 __________O___ -1 TC -32.0000 113.400 7 5 109
1923011S17122 1923 2 SI WA NOT_NAMED 1923-01-19 15:00:00 NR -32.0778 113.694 main 188 159 __________P___ -1 TC -32.0778 113.694 7 5 106
1923011S17122 1923 2 SI WA NOT_NAMED 1923-01-19 18:00:00 NR -32.1535 114.014 main 159 131 __________P___ -1 TC -32.1535 114.014 7 6 105
1923011S17122 1923 2 SI WA NOT_NAMED 1923-01-19 21:00:00 NR -32.2274 114.352 main 122 93 __________P___ -1 TC -32.2274 114.352 7 6 104
1923011S17122 1923 2 SI WA NOT_NAMED 1923-01-20 00:00:00 NR -32.3000 114.700 main 93 __________O___ -1 -32.3000 114.700 7 6 104

About IBTrACS Database

This database is a web-friendly format of International Best Track Archive for Climate Stewardship (IBTrACS), a global best track data archive curated by NOAA dating back to 1842.

Updated: 2021-12-03